sensor_id;sensor_type;location;lat;lon;timestamp;pressure;altitude;pressure_sealevel;temperature;humidity
6899;BME280;3488;42.616;23.350;2023-04-27T00:00:18;62774.41;;;7.55;61.00
6899;BME280;3488;42.616;23.350;2023-04-27T00:02:45;62770.25;;;7.51;60.96
6899;BME280;3488;42.616;23.350;2023-04-27T00:05:12;62772.81;;;7.51;60.50
6899;BME280;3488;42.616;23.350;2023-04-27T00:07:41;62774.31;;;7.50;60.75
6899;BME280;3488;42.616;23.350;2023-04-27T00:10:09;62768.69;;;7.47;60.81
6899;BME280;3488;42.616;23.350;2023-04-27T00:12:39;62766.56;;;7.42;61.03
6899;BME280;3488;42.616;23.350;2023-04-27T00:15:08;62766.56;;;7.42;61.20
6899;BME280;3488;42.616;23.350;2023-04-27T00:17:35;62760.00;;;7.43;61.17
6899;BME280;3488;42.616;23.350;2023-04-27T00:20:03;62756.25;;;7.32;61.10
6899;BME280;3488;42.616;23.350;2023-04-27T00:22:33;62752.25;;;7.36;61.32
6899;BME280;3488;42.616;23.350;2023-04-27T00:25:01;62748.66;;;7.32;61.21
6899;BME280;3488;42.616;23.350;2023-04-27T00:27:28;62755.78;;;7.34;61.11
6899;BME280;3488;42.616;23.350;2023-04-27T00:29:56;62747.00;;;7.26;61.13
6899;BME280;3488;42.616;23.350;2023-04-27T00:32:32;62737.69;;;7.14;60.91
6899;BME280;3488;42.616;23.350;2023-04-27T00:34:59;62730.47;;;7.07;61.76
6899;BME280;3488;42.616;23.350;2023-04-27T00:37:26;62727.34;;;7.04;62.16
6899;BME280;3488;42.616;23.350;2023-04-27T00:39:54;62713.41;;;6.90;62.15
6899;BME280;3488;42.616;23.350;2023-04-27T00:42:22;62711.94;;;6.91;62.06
6899;BME280;3488;42.616;23.350;2023-04-27T00:44:49;62713.91;;;6.88;62.37
6899;BME280;3488;42.616;23.350;2023-04-27T00:47:17;62695.97;;;6.78;62.52
6899;BME280;3488;42.616;23.350;2023-04-27T00:49:44;62681.50;;;6.62;62.46
6899;BME280;3488;42.616;23.350;2023-04-27T00:52:11;62689.81;;;6.72;63.07
6899;BME280;3488;42.616;23.350;2023-04-27T00:54:38;62688.66;;;6.66;63.36
6899;BME280;3488;42.616;23.350;2023-04-27T00:57:05;62672.28;;;6.55;63.79
6899;BME280;3488;42.616;23.350;2023-04-27T00:59:35;62675.81;;;6.56;64.01
6899;BME280;3488;42.616;23.350;2023-04-27T01:02:02;62671.66;;;6.50;64.53
6899;BME280;3488;42.616;23.350;2023-04-27T01:04:29;62667.03;;;6.45;63.94
6899;BME280;3488;42.616;23.350;2023-04-27T01:06:56;62658.34;;;6.42;63.71
6899;BME280;3488;42.616;23.350;2023-04-27T01:09:23;62660.41;;;6.44;63.98
6899;BME280;3488;42.616;23.350;2023-04-27T01:11:51;62661.34;;;6.40;63.86
6899;BME280;3488;42.616;23.350;2023-04-27T01:14:18;62661.91;;;6.43;63.17
6899;BME280;3488;42.616;23.350;2023-04-27T01:16:46;62649.06;;;6.33;63.54
6899;BME280;3488;42.616;23.350;2023-04-27T01:19:15;62655.72;;;6.37;63.54
6899;BME280;3488;42.616;23.350;2023-04-27T01:21:42;62655.78;;;6.39;63.01
6899;BME280;3488;42.616;23.350;2023-04-27T01:24:11;62652.13;;;6.33;63.17
6899;BME280;3488;42.616;23.350;2023-04-27T01:26:38;62650.56;;;6.32;63.02
6899;BME280;3488;42.616;23.350;2023-04-27T01:29:05;62632.53;;;6.14;63.40
6899;BME280;3488;42.616;23.350;2023-04-27T01:31:33;62648.00;;;6.29;62.99
6899;BME280;3488;42.616;23.350;2023-04-27T01:34:00;62640.34;;;6.27;63.05
6899;BME280;3488;42.616;23.350;2023-04-27T01:36:28;62653.59;;;6.32;63.02
6899;BME280;3488;42.616;23.350;2023-04-27T01:38:56;62645.00;;;6.31;62.73
6899;BME280;3488;42.616;23.350;2023-04-27T01:41:24;62650.00;;;6.29;63.01
6899;BME280;3488;42.616;23.350;2023-04-27T01:43:52;62641.28;;;6.23;62.55
6899;BME280;3488;42.616;23.350;2023-04-27T01:46:19;62645.47;;;6.29;62.70
6899;BME280;3488;42.616;23.350;2023-04-27T01:48:47;62629.59;;;6.19;62.42
6899;BME280;3488;42.616;23.350;2023-04-27T01:51:14;62639.75;;;6.21;62.35
6899;BME280;3488;42.616;23.350;2023-04-27T01:53:41;62636.19;;;6.20;62.27
6899;BME280;3488;42.616;23.350;2023-04-27T01:56:09;62632.56;;;6.17;62.01
6899;BME280;3488;42.616;23.350;2023-04-27T01:58:37;62639.22;;;6.21;62.31
6899;BME280;3488;42.616;23.350;2023-04-27T02:01:04;62638.72;;;6.20;62.24
6899;BME280;3488;42.616;23.350;2023-04-27T02:03:32;62627.47;;;6.14;61.94
6899;BME280;3488;42.616;23.350;2023-04-27T02:05:59;62632.06;;;6.16;62.64
6899;BME280;3488;42.616;23.350;2023-04-27T02:08:26;62629.47;;;6.14;62.54
6899;BME280;3488;42.616;23.350;2023-04-27T02:10:54;62629.94;;;6.12;62.34
6899;BME280;3488;42.616;23.350;2023-04-27T02:13:21;62627.41;;;6.12;62.04
6899;BME280;3488;42.616;23.350;2023-04-27T02:15:49;62628.44;;;6.13;62.24
6899;BME280;3488;42.616;23.350;2023-04-27T02:18:16;62624.38;;;6.11;62.11
6899;BME280;3488;42.616;23.350;2023-04-27T02:20:44;62620.75;;;6.08;61.64
6899;BME280;3488;42.616;23.350;2023-04-27T02:23:11;62625.78;;;6.05;61.90
6899;BME280;3488;42.616;23.350;2023-04-27T02:25:39;62624.34;;;6.09;62.05
6899;BME280;3488;42.616;23.350;2023-04-27T02:28:09;62625.81;;;6.08;61.73
6899;BME280;3488;42.616;23.350;2023-04-27T02:30:36;62623.88;;;6.11;61.36
6899;BME280;3488;42.616;23.350;2023-04-27T02:33:04;62628.44;;;6.13;61.56
6899;BME280;3488;42.616;23.350;2023-04-27T02:35:31;62611.97;;;5.97;61.17
6899;BME280;3488;42.616;23.350;2023-04-27T02:37:59;62622.25;;;6.07;61.54
6899;BME280;3488;42.616;23.350;2023-04-27T02:40:26;62623.25;;;6.05;61.20
6899;BME280;3488;42.616;23.350;2023-04-27T02:42:53;62623.25;;;6.05;61.53
6899;BME280;3488;42.616;23.350;2023-04-27T02:45:21;62623.28;;;6.08;61.30
6899;BME280;3488;42.616;23.350;2023-04-27T02:47:47;62627.94;;;6.12;61.53
6899;BME280;3488;42.616;23.350;2023-04-27T02:50:17;62620.75;;;6.08;61.46
6899;BME280;3488;42.616;23.350;2023-04-27T02:52:44;62631.56;;;6.16;61.50
6899;BME280;3488;42.616;23.350;2023-04-27T02:55:11;62630.50;;;6.15;61.25
6899;BME280;3488;42.616;23.350;2023-04-27T02:57:38;62636.59;;;6.16;61.29
6899;BME280;3488;42.616;23.350;2023-04-27T03:00:07;62628.88;;;6.08;61.30
6899;BME280;3488;42.616;23.350;2023-04-27T03:02:36;62627.34;;;6.09;61.04
6899;BME280;3488;42.616;23.350;2023-04-27T03:05:03;62628.97;;;6.13;61.45
6899;BME280;3488;42.616;23.350;2023-04-27T03:07:32;62628.97;;;6.13;61.32
6899;BME280;3488;42.616;23.350;2023-04-27T03:09:59;62618.09;;;6.00;60.42
6899;BME280;3488;42.616;23.350;2023-04-27T03:12:26;62625.88;;;6.10;60.69
6899;BME280;3488;42.616;23.350;2023-04-27T03:14:53;62620.72;;;6.05;60.75
6899;BME280;3488;42.616;23.350;2023-04-27T03:17:20;62622.78;;;6.07;61.14
6899;BME280;3488;42.616;23.350;2023-04-27T03:19:48;62624.28;;;6.06;61.62
6899;BME280;3488;42.616;23.350;2023-04-27T03:22:15;62627.41;;;6.12;60.96
6899;BME280;3488;42.616;23.350;2023-04-27T03:24:44;62623.25;;;6.05;60.97
6899;BME280;3488;42.616;23.350;2023-04-27T03:27:11;62624.22;;;6.04;61.51
6899;BME280;3488;42.616;23.350;2023-04-27T03:29:38;62629.38;;;6.09;60.60
6899;BME280;3488;42.616;23.350;2023-04-27T03:32:05;62616.66;;;6.04;60.95
6899;BME280;3488;42.616;23.350;2023-04-27T03:34:32;62626.44;;;6.13;60.76
6899;BME280;3488;42.616;23.350;2023-04-27T03:37:00;62622.81;;;6.10;60.66
6899;BME280;3488;42.616;23.350;2023-04-27T03:39:27;62622.31;;;6.09;60.50
6899;BME280;3488;42.616;23.350;2023-04-27T03:41:56;62625.41;;;6.12;60.66
6899;BME280;3488;42.616;23.350;2023-04-27T03:44:23;62619.69;;;6.04;60.13
6899;BME280;3488;42.616;23.350;2023-04-27T03:46:50;62619.19;;;6.04;59.57
6899;BME280;3488;42.616;23.350;2023-04-27T03:49:18;62620.19;;;6.05;60.33
6899;BME280;3488;42.616;23.350;2023-04-27T03:51:45;62617.16;;;6.04;60.04
6899;BME280;3488;42.616;23.350;2023-04-27T03:54:12;62618.56;;;5.98;59.47
6899;BME280;3488;42.616;23.350;2023-04-27T03:56:42;62619.75;;;6.07;59.65
6899;BME280;3488;42.616;23.350;2023-04-27T03:59:11;62623.25;;;6.05;59.33
6899;BME280;3488;42.616;23.350;2023-04-27T04:01:38;62628.41;;;6.10;59.61
6899;BME280;3488;42.616;23.350;2023-04-27T04:04:06;62633.63;;;6.18;59.53
6899;BME280;3488;42.616;23.350;2023-04-27T04:06:33;62641.34;;;6.25;59.03
6899;BME280;3488;42.616;23.350;2023-04-27T04:09:00;62640.34;;;6.27;58.95
6899;BME280;3488;42.616;23.350;2023-04-27T04:11:28;62646.53;;;6.33;58.97
6899;BME280;3488;42.616;23.350;2023-04-27T04:13:55;62640.78;;;6.22;59.36
6899;BME280;3488;42.616;23.350;2023-04-27T04:16:23;62642.88;;;6.27;58.51
6899;BME280;3488;42.616;23.350;2023-04-27T04:18:51;62645.88;;;6.25;58.79
6899;BME280;3488;42.616;23.350;2023-04-27T04:21:18;62643.97;;;6.30;58.67
6899;BME280;3488;42.616;23.350;2023-04-27T04:23:45;62639.78;;;6.24;58.90
6899;BME280;3488;42.616;23.350;2023-04-27T04:26:12;62648.56;;;6.32;58.91
6899;BME280;3488;42.616;23.350;2023-04-27T04:28:39;62651.19;;;6.37;58.52
6899;BME280;3488;42.616;23.350;2023-04-27T04:31:06;62658.34;;;6.42;58.54
6899;BME280;3488;42.616;23.350;2023-04-27T04:33:36;62670.66;;;6.51;58.09
6899;BME280;3488;42.616;23.350;2023-04-27T04:36:03;62666.13;;;6.52;57.60
6899;BME280;3488;42.616;23.350;2023-04-27T04:38:31;62673.25;;;6.54;57.69
6899;BME280;3488;42.616;23.350;2023-04-27T04:41:01;62673.28;;;6.56;57.52
6899;BME280;3488;42.616;23.350;2023-04-27T04:43:28;62676.91;;;6.60;57.32
6899;BME280;3488;42.616;23.350;2023-04-27T04:45:55;62680.41;;;6.58;57.13
6899;BME280;3488;42.616;23.350;2023-04-27T04:48:22;62689.28;;;6.72;57.41
6899;BME280;3488;42.616;23.350;2023-04-27T04:50:50;62684.59;;;6.65;56.53
6899;BME280;3488;42.616;23.350;2023-04-27T04:53:17;62689.28;;;6.72;56.29
6899;BME280;3488;42.616;23.350;2023-04-27T04:55:44;62670.13;;;6.48;56.13
6899;BME280;3488;42.616;23.350;2023-04-27T04:58:11;62694.88;;;6.72;56.19
6899;BME280;3488;42.616;23.350;2023-04-27T05:00:38;62691.34;;;6.74;56.75
6899;BME280;3488;42.616;23.350;2023-04-27T05:03:06;62694.97;;;6.77;55.88
6899;BME280;3488;42.616;23.350;2023-04-27T05:05:33;62707.81;;;6.87;55.95
6899;BME280;3488;42.616;23.350;2023-04-27T05:08:01;62717.03;;;6.94;55.63
6899;BME280;3488;42.616;23.350;2023-04-27T05:10:28;62711.47;;;6.93;55.27
6899;BME280;3488;42.616;23.350;2023-04-27T05:12:55;62712.53;;;6.97;55.59
6899;BME280;3488;42.616;23.350;2023-04-27T05:15:22;62728.44;;;7.07;55.61
6899;BME280;3488;42.616;23.350;2023-04-27T05:17:49;62731.47;;;7.08;55.51
6899;BME280;3488;42.616;23.350;2023-04-27T05:20:16;62746.94;;;7.23;55.17
6899;BME280;3488;42.616;23.350;2023-04-27T05:22:43;62736.69;;;7.16;54.77
6899;BME280;3488;42.616;23.350;2023-04-27T05:25:14;62753.31;;;7.37;55.35
6899;BME280;3488;42.616;23.350;2023-04-27T05:27:41;62770.16;;;7.46;54.96
6899;BME280;3488;42.616;23.350;2023-04-27T05:30:09;62754.22;;;7.33;54.50
6899;BME280;3488;42.616;23.350;2023-04-27T05:32:36;62744.00;;;7.28;55.34
6899;BME280;3488;42.616;23.350;2023-04-27T05:35:04;62753.75;;;7.35;55.47
6899;BME280;3488;42.616;23.350;2023-04-27T05:37:31;62755.31;;;7.36;54.99
6899;BME280;3488;42.616;23.350;2023-04-27T05:39:58;62751.13;;;7.30;55.28
6899;BME280;3488;42.616;23.350;2023-04-27T05:42:27;62733.69;;;7.18;55.32
6899;BME280;3488;42.616;23.350;2023-04-27T05:44:54;62734.16;;;7.16;55.38
6899;BME280;3488;42.616;23.350;2023-04-27T05:47:21;62733.59;;;7.13;55.66
6899;BME280;3488;42.616;23.350;2023-04-27T05:49:49;62745.50;;;7.27;55.91
6899;BME280;3488;42.616;23.350;2023-04-27T05:52:17;62751.75;;;7.35;56.41
6899;BME280;3488;42.616;23.350;2023-04-27T05:54:45;62757.31;;;7.36;55.53
6899;BME280;3488;42.616;23.350;2023-04-27T05:57:13;62751.19;;;7.32;55.35
6899;BME280;3488;42.616;23.350;2023-04-27T05:59:42;62750.66;;;7.32;55.96
6899;BME280;3488;42.616;23.350;2023-04-27T06:02:09;62758.94;;;7.40;56.43
6899;BME280;3488;42.616;23.350;2023-04-27T06:04:38;62735.66;;;7.15;57.19
6899;BME280;3488;42.616;23.350;2023-04-27T06:07:07;62754.78;;;7.36;55.64
6899;BME280;3488;42.616;23.350;2023-04-27T06:09:34;62767.69;;;7.48;56.13
6899;BME280;3488;42.616;23.350;2023-04-27T06:12:02;62788.25;;;7.63;55.48
6899;BME280;3488;42.616;23.350;2023-04-27T06:14:29;62804.81;;;7.82;54.95
6899;BME280;3488;42.616;23.350;2023-04-27T06:16:57;62819.31;;;7.98;55.14
6899;BME280;3488;42.616;23.350;2023-04-27T06:19:24;62835.72;;;8.09;54.44
6899;BME280;3488;42.616;23.350;2023-04-27T06:21:52;62845.66;;;8.24;53.85
6899;BME280;3488;42.616;23.350;2023-04-27T06:24:19;62852.84;;;8.29;53.84
6899;BME280;3488;42.616;23.350;2023-04-27T06:26:46;62854.97;;;8.33;53.33
6899;BME280;3488;42.616;23.350;2023-04-27T06:29:14;62851.84;;;8.30;53.58
6899;BME280;3488;42.616;23.350;2023-04-27T06:31:41;62850.78;;;8.27;52.72
6899;BME280;3488;42.616;23.350;2023-04-27T06:34:09;62846.19;;;8.25;52.85
6899;BME280;3488;42.616;23.350;2023-04-27T06:36:41;62844.09;;;8.23;53.13
6899;BME280;3488;42.616;23.350;2023-04-27T06:39:08;62810.44;;;7.85;55.04
6899;BME280;3488;42.616;23.350;2023-04-27T06:41:37;62815.72;;;7.97;54.21
6899;BME280;3488;42.616;23.350;2023-04-27T06:44:04;62828.13;;;8.09;53.96
6899;BME280;3488;42.616;23.350;2023-04-27T06:46:31;62867.81;;;8.43;53.20
6899;BME280;3488;42.616;23.350;2023-04-27T06:48:58;62866.91;;;8.47;52.91
6899;BME280;3488;42.616;23.350;2023-04-27T06:51:27;62890.03;;;8.65;52.56
6899;BME280;3488;42.616;23.350;2023-04-27T06:53:54;62879.22;;;8.57;52.46
6899;BME280;3488;42.616;23.350;2023-04-27T06:56:22;62896.28;;;8.73;52.04
6899;BME280;3488;42.616;23.350;2023-04-27T06:58:49;62924.59;;;8.96;51.73
6899;BME280;3488;42.616;23.350;2023-04-27T07:01:16;62896.78;;;8.74;52.96
6899;BME280;3488;42.616;23.350;2023-04-27T07:03:43;62905.06;;;8.82;52.40
6899;BME280;3488;42.616;23.350;2023-04-27T07:06:10;62944.81;;;9.18;52.04
6899;BME280;3488;42.616;23.350;2023-04-27T07:08:39;62871.97;;;8.47;53.23
6899;BME280;3488;42.616;23.350;2023-04-27T07:11:06;62854.97;;;8.33;54.10
6899;BME280;3488;42.616;23.350;2023-04-27T07:13:33;62916.91;;;8.91;52.96
6899;BME280;3488;42.616;23.350;2023-04-27T07:16:01;62945.38;;;9.21;51.62
6899;BME280;3488;42.616;23.350;2023-04-27T07:18:28;62962.44;;;9.38;51.30
6899;BME280;3488;42.616;23.350;2023-04-27T07:20:55;62997.59;;;9.72;50.42
6899;BME280;3488;42.616;23.350;2023-04-27T07:23:22;63011.50;;;9.83;49.60
6899;BME280;3488;42.616;23.350;2023-04-27T07:25:50;62997.03;;;9.69;49.35
6899;BME280;3488;42.616;23.350;2023-04-27T07:28:17;62985.09;;;9.55;50.63
6899;BME280;3488;42.616;23.350;2023-04-27T07:30:44;63002.66;;;9.72;51.29
6899;BME280;3488;42.616;23.350;2023-04-27T07:33:11;63031.09;;;9.99;48.76
6899;BME280;3488;42.616;23.350;2023-04-27T07:35:38;63069.91;;;10.34;49.10
6899;BME280;3488;42.616;23.350;2023-04-27T07:38:06;63104.63;;;10.71;48.87
6899;BME280;3488;42.616;23.350;2023-04-27T07:40:33;63069.50;;;10.41;49.18
6899;BME280;3488;42.616;23.350;2023-04-27T07:43:02;63081.84;;;10.48;46.56
6899;BME280;3488;42.616;23.350;2023-04-27T07:45:30;63081.97;;;10.56;46.41
6899;BME280;3488;42.616;23.350;2023-04-27T07:47:58;63042.56;;;10.13;47.49
6899;BME280;3488;42.616;23.350;2023-04-27T07:50:25;62987.72;;;9.60;48.64
6899;BME280;3488;42.616;23.350;2023-04-27T07:52:53;62984.63;;;9.57;49.90
6899;BME280;3488;42.616;23.350;2023-04-27T07:55:21;63000.72;;;9.77;49.02
6899;BME280;3488;42.616;23.350;2023-04-27T07:57:49;63019.78;;;9.91;47.87
6899;BME280;3488;42.616;23.350;2023-04-27T08:00:18;63047.78;;;10.20;48.44
6899;BME280;3488;42.616;23.350;2023-04-27T08:02:45;63051.84;;;10.19;46.58
6899;BME280;3488;42.616;23.350;2023-04-27T08:05:12;63049.84;;;10.22;47.66
6899;BME280;3488;42.616;23.350;2023-04-27T08:07:39;63005.81;;;9.77;48.88
6899;BME280;3488;42.616;23.350;2023-04-27T08:10:07;63011.06;;;9.87;48.22
6899;BME280;3488;42.616;23.350;2023-04-27T08:12:34;62990.31;;;9.62;47.65
6899;BME280;3488;42.616;23.350;2023-04-27T08:15:01;63020.38;;;9.96;47.98
6899;BME280;3488;42.616;23.350;2023-04-27T08:17:29;63074.13;;;10.43;48.20
6899;BME280;3488;42.616;23.350;2023-04-27T08:19:57;63100.59;;;10.74;46.32
6899;BME280;3488;42.616;23.350;2023-04-27T08:22:24;63126.88;;;10.92;45.75
6899;BME280;3488;42.616;23.350;2023-04-27T08:24:51;63115.56;;;10.86;44.83
6899;BME280;3488;42.616;23.350;2023-04-27T08:27:18;63120.19;;;10.88;45.65
6899;BME280;3488;42.616;23.350;2023-04-27T08:29:45;63087.03;;;10.56;45.43
6899;BME280;3488;42.616;23.350;2023-04-27T08:32:13;63109.25;;;10.75;45.25
6899;BME280;3488;42.616;23.350;2023-04-27T08:34:42;63116.00;;;10.82;44.94
6899;BME280;3488;42.616;23.350;2023-04-27T08:37:11;63089.16;;;10.61;45.83
6899;BME280;3488;42.616;23.350;2023-04-27T08:39:38;63118.72;;;10.92;45.43
6899;BME280;3488;42.616;23.350;2023-04-27T08:42:11;63137.84;;;11.08;45.42
6899;BME280;3488;42.616;23.350;2023-04-27T08:44:39;63158.63;;;11.33;44.85
6899;BME280;3488;42.616;23.350;2023-04-27T08:47:07;63168.38;;;11.37;44.12
6899;BME280;3488;42.616;23.350;2023-04-27T08:49:35;63174.03;;;11.40;44.10
6899;BME280;3488;42.616;23.350;2023-04-27T08:52:09;63151.75;;;11.19;45.15
6899;BME280;3488;42.616;23.350;2023-04-27T08:54:37;63195.78;;;11.61;44.29
6899;BME280;3488;42.616;23.350;2023-04-27T08:57:09;63179.22;;;11.45;44.09
6899;BME280;3488;42.616;23.350;2023-04-27T08:59:36;63215.00;;;11.83;43.90
6899;BME280;3488;42.616;23.350;2023-04-27T09:02:03;63201.47;;;11.65;44.56
6899;BME280;3488;42.616;23.350;2023-04-27T09:04:36;63224.81;;;11.90;43.29
6899;BME280;3488;42.616;23.350;2023-04-27T09:07:13;63221.78;;;11.92;43.27
6899;BME280;3488;42.616;23.350;2023-04-27T09:09:40;63248.13;;;12.12;43.36
6899;BME280;3488;42.616;23.350;2023-04-27T09:12:15;63273.59;;;12.42;42.49
6899;BME280;3488;42.616;23.350;2023-04-27T09:14:42;63254.88;;;12.19;42.41
6899;BME280;3488;42.616;23.350;2023-04-27T09:17:09;63235.16;;;12.00;41.78
6899;BME280;3488;42.616;23.350;2023-04-27T09:19:36;63234.22;;;12.04;42.35
6899;BME280;3488;42.616;23.350;2023-04-27T09:22:05;63257.97;;;12.22;42.61
6899;BME280;3488;42.616;23.350;2023-04-27T09:24:34;63276.59;;;12.37;42.94
6899;BME280;3488;42.616;23.350;2023-04-27T09:27:02;63288.59;;;12.54;43.23
6899;BME280;3488;42.616;23.350;2023-04-27T09:29:33;63281.88;;;12.47;42.52
6899;BME280;3488;42.616;23.350;2023-04-27T09:32:02;63272.47;;;12.36;41.46
6899;BME280;3488;42.616;23.350;2023-04-27T09:34:40;63296.41;;;12.64;42.08
6899;BME280;3488;42.616;23.350;2023-04-27T09:37:07;63301.56;;;12.66;41.75
6899;BME280;3488;42.616;23.350;2023-04-27T09:39:37;63324.34;;;12.86;40.63
6899;BME280;3488;42.616;23.350;2023-04-27T09:42:05;63315.00;;;12.77;40.62
6899;BME280;3488;42.616;23.350;2023-04-27T09:44:33;63333.16;;;12.95;40.82
6899;BME280;3488;42.616;23.350;2023-04-27T09:47:01;63366.38;;;13.27;40.99
6899;BME280;3488;42.616;23.350;2023-04-27T09:49:29;63379.84;;;13.40;39.42
6899;BME280;3488;42.616;23.350;2023-04-27T09:51:58;63298.97;;;12.64;39.64
6899;BME280;3488;42.616;23.350;2023-04-27T09:54:28;63292.19;;;12.55;39.02
6899;BME280;3488;42.616;23.350;2023-04-27T09:57:07;63334.66;;;12.94;38.44
6899;BME280;3488;42.616;23.350;2023-04-27T09:59:52;63304.06;;;12.64;39.60
6899;BME280;3488;42.616;23.350;2023-04-27T10:02:23;63298.84;;;12.56;39.99
6899;BME280;3488;42.616;23.350;2023-04-27T10:05:07;63272.53;;;12.38;39.64
6899;BME280;3488;42.616;23.350;2023-04-27T10:07:40;63259.63;;;12.28;39.43
6899;BME280;3488;42.616;23.350;2023-04-27T10:10:14;63291.09;;;12.51;40.43
6899;BME280;3488;42.616;23.350;2023-04-27T10:12:55;63328.44;;;12.88;39.61
6899;BME280;3488;42.616;23.350;2023-04-27T10:15:25;63374.13;;;13.34;38.14
6899;BME280;3488;42.616;23.350;2023-04-27T10:17:53;63418.81;;;13.80;37.99
6899;BME280;3488;42.616;23.350;2023-04-27T10:20:29;63324.84;;;12.87;38.50
6899;BME280;3488;42.616;23.350;2023-04-27T10:22:57;63238.38;;;12.08;38.65
6899;BME280;3488;42.616;23.350;2023-04-27T10:25:26;63247.13;;;12.14;38.53
6899;BME280;3488;42.616;23.350;2023-04-27T10:27:57;63226.41;;;11.94;39.92
6899;BME280;3488;42.616;23.350;2023-04-27T10:30:26;63277.19;;;12.43;39.89
6899;BME280;3488;42.616;23.350;2023-04-27T10:33:03;63336.78;;;12.98;38.84
6899;BME280;3488;42.616;23.350;2023-04-27T10:35:32;63301.06;;;12.68;39.24
6899;BME280;3488;42.616;23.350;2023-04-27T10:38:05;63200.50;;;11.69;40.46
6899;BME280;3488;42.616;23.350;2023-04-27T10:40:33;63198.31;;;11.61;41.63
6899;BME280;3488;42.616;23.350;2023-04-27T10:43:08;63186.97;;;11.53;41.04
6899;BME280;3488;42.616;23.350;2023-04-27T10:45:36;63257.00;;;12.23;40.79
6899;BME280;3488;42.616;23.350;2023-04-27T10:48:04;63324.34;;;12.86;38.48
6899;BME280;3488;42.616;23.350;2023-04-27T10:50:32;63340.44;;;13.02;38.29
6899;BME280;3488;42.616;23.350;2023-04-27T10:53:01;63362.69;;;13.21;37.72
6899;BME280;3488;42.616;23.350;2023-04-27T10:55:30;63362.75;;;13.26;37.57
6899;BME280;3488;42.616;23.350;2023-04-27T10:57:57;63322.78;;;12.85;38.69
6899;BME280;3488;42.616;23.350;2023-04-27T11:00:28;63350.72;;;13.07;37.60
6899;BME280;3488;42.616;23.350;2023-04-27T11:03:08;63372.09;;;13.35;37.32
6899;BME280;3488;42.616;23.350;2023-04-27T11:05:36;63379.31;;;13.39;37.10
6899;BME280;3488;42.616;23.350;2023-04-27T11:08:04;63316.03;;;12.78;38.37
6899;BME280;3488;42.616;23.350;2023-04-27T11:10:32;63268.31;;;12.29;38.36
6899;BME280;3488;42.616;23.350;2023-04-27T11:13:07;63310.72;;;12.65;38.36
6899;BME280;3488;42.616;23.350;2023-04-27T11:15:48;63355.94;;;13.14;37.98
6899;BME280;3488;42.616;23.350;2023-04-27T11:18:17;63362.75;;;13.23;37.79
6899;BME280;3488;42.616;23.350;2023-04-27T11:20:46;63310.38;;;12.75;37.88
6899;BME280;3488;42.616;23.350;2023-04-27T11:23:22;63324.84;;;12.87;38.30
6899;BME280;3488;42.616;23.350;2023-04-27T11:25:49;63303.06;;;12.65;39.07
6899;BME280;3488;42.616;23.350;2023-04-27T11:28:17;63229.44;;;11.92;38.74
6899;BME280;3488;42.616;23.350;2023-04-27T11:30:46;63250.22;;;12.17;38.70
6899;BME280;3488;42.616;23.350;2023-04-27T11:33:14;63285.50;;;12.51;38.55
6899;BME280;3488;42.616;23.350;2023-04-27T11:35:41;63330.09;;;12.94;37.58
6899;BME280;3488;42.616;23.350;2023-04-27T11:38:15;63355.47;;;13.16;37.66
6899;BME280;3488;42.616;23.350;2023-04-27T11:40:43;63389.16;;;13.46;38.51
6899;BME280;3488;42.616;23.350;2023-04-27T11:43:11;63411.06;;;13.75;37.43
6899;BME280;3488;42.616;23.350;2023-04-27T11:45:43;63453.53;;;14.11;35.42
6899;BME280;3488;42.616;23.350;2023-04-27T11:48:15;63454.56;;;14.12;34.63
6899;BME280;3488;42.616;23.350;2023-04-27T11:50:45;63409.94;;;13.69;37.24
6899;BME280;3488;42.616;23.350;2023-04-27T11:53:13;63346.69;;;13.10;38.75
6899;BME280;3488;42.616;23.350;2023-04-27T11:55:40;63261.59;;;12.25;39.87
6899;BME280;3488;42.616;23.350;2023-04-27T11:58:12;63309.31;;;12.74;38.97
6899;BME280;3488;42.616;23.350;2023-04-27T12:00:40;63348.25;;;13.12;37.52
6899;BME280;3488;42.616;23.350;2023-04-27T12:03:07;63395.91;;;13.53;38.31
6899;BME280;3488;42.616;23.350;2023-04-27T12:05:48;63417.72;;;13.76;36.77
6899;BME280;3488;42.616;23.350;2023-04-27T12:08:15;63436.38;;;13.92;36.88
6899;BME280;3488;42.616;23.350;2023-04-27T12:10:43;63421.88;;;13.80;37.59
6899;BME280;3488;42.616;23.350;2023-04-27T12:13:11;63416.19;;;13.77;36.60
6899;BME280;3488;42.616;23.350;2023-04-27T12:15:38;63414.09;;;13.73;37.30
6899;BME280;3488;42.616;23.350;2023-04-27T12:18:06;63429.63;;;13.85;36.56
6899;BME280;3488;42.616;23.350;2023-04-27T12:20:35;63326.44;;;12.91;38.46
6899;BME280;3488;42.616;23.350;2023-04-27T12:23:02;63321.75;;;12.84;37.66
6899;BME280;3488;42.616;23.350;2023-04-27T12:25:29;63338.84;;;13.00;37.84
6899;BME280;3488;42.616;23.350;2023-04-27T12:27:56;63303.53;;;12.61;39.43
6899;BME280;3488;42.616;23.350;2023-04-27T12:30:25;63276.13;;;12.39;39.79
6899;BME280;3488;42.616;23.350;2023-04-27T12:32:53;63321.69;;;12.81;39.61
6899;BME280;3488;42.616;23.350;2023-04-27T12:35:20;63261.16;;;12.30;40.10
6899;BME280;3488;42.616;23.350;2023-04-27T12:37:50;63228.44;;;11.93;39.76
6899;BME280;3488;42.616;23.350;2023-04-27T12:40:17;63245.53;;;12.10;39.75
6899;BME280;3488;42.616;23.350;2023-04-27T12:42:45;63297.34;;;12.57;39.75
6899;BME280;3488;42.616;23.350;2023-04-27T12:45:12;63321.16;;;12.78;39.55
6899;BME280;3488;42.616;23.350;2023-04-27T12:47:39;63330.03;;;12.92;39.48
6899;BME280;3488;42.616;23.350;2023-04-27T12:50:09;63336.28;;;12.98;38.49
6899;BME280;3488;42.616;23.350;2023-04-27T12:52:38;63317.59;;;12.79;38.66
6899;BME280;3488;42.616;23.350;2023-04-27T12:55:08;63308.22;;;12.68;38.57
6899;BME280;3488;42.616;23.350;2023-04-27T12:57:35;63330.50;;;12.90;38.21
6899;BME280;3488;42.616;23.350;2023-04-27T13:00:03;63282.34;;;12.45;39.60
6899;BME280;3488;42.616;23.350;2023-04-27T13:02:34;63290.09;;;12.53;39.20
6899;BME280;3488;42.616;23.350;2023-04-27T13:05:02;63308.81;;;12.73;38.89
6899;BME280;3488;42.616;23.350;2023-04-27T13:07:31;63309.25;;;12.69;39.64
6899;BME280;3488;42.616;23.350;2023-04-27T13:09:58;63271.41;;;12.32;40.21
6899;BME280;3488;42.616;23.350;2023-04-27T13:12:27;63294.22;;;12.54;39.37
6899;BME280;3488;42.616;23.350;2023-04-27T13:14:54;63324.31;;;12.84;38.76
6899;BME280;3488;42.616;23.350;2023-04-27T13:17:21;63299.44;;;12.62;38.90
6899;BME280;3488;42.616;23.350;2023-04-27T13:19:48;63337.81;;;12.99;38.19
6899;BME280;3488;42.616;23.350;2023-04-27T13:22:16;63372.59;;;13.33;38.03